Verona Beach, New York
Current Conditions -  °F | °C
As of 12:53 AM on Thursday 29 Jan 2015 (Local Time) from KRME Reporting Station
Clear Clear  
Wind Chill:   Ceiling: Unl
Heat Index:   Visibility: 10mi
Dew Point: -6°   Wind: 0mph
Humidity: 76%   Direction: NA
Pressure: 30.35"   Gusts: NA
Location:  43.19°N, 75.73°W
Report Text: KRME 290553Z AUTO 00000KT 10SM CLR M18/M21 A3035 RMK AO2 SLP286 T11781211 11106 21183 50002
Loading
Personal Weather Stations






























Interactive Weather Map New forecast layout! Learn more

10-Day Weather Forecast

Advertisements
Track Severe Weather on mobile